Black Brook, Wisconsin
Current Conditions -  °F | °C
As of 6:55 AM on Saturday 25 Oct 2014 (Local Time) from KRNH Reporting Station
Clear Clear  
Wind Chill: 43°   Ceiling: Unl
Heat Index: 47°   Visibility: 10mi
Dew Point: 35°   Wind: 8mph
Humidity: 62%   Direction: 280°W
Pressure: 29.96"   Gusts: NA
Location:  45.2417°N, 92.2543°W
Report Text: KRNH 251155Z AUTO 28007KT 10SM CLR 08/01 A2996 RMK AO2 T00820014 10112 20082
Loading
Personal Weather Stations






























Interactive Weather Map New forecast layout! Learn more

10-Day Weather Forecast

Advertisements
Track Severe Weather on mobile